Time;durP1;ratioP1;P1;durP2;ratioP2;P2;SDS_P1;SDS_P2;PMS_P1;PMS_P2;Temp;Humidity;BMP_temperature;BMP_pressure;BME280_temperature;BME280_humidity;BME280_pressure;Samples;Min_cycle;Max_cycle;Signal;HPM_P1;HPM_P2
2022/04/16 00:02:00;;;;;;;17.10;9.27;;;;;;;;;;5095796;28;20097;-70
2022/04/16 00:04:29;;;;;;;18.17;9.37;;;;;;;;;;5102381;28;20393;-71
2022/04/16 00:06:55;;;;;;;17.40;9.83;;;;;;;;;;5093576;28;20551;-71
2022/04/16 00:09:21;;;;;;;18.43;10.23;;;;;;;;;;5083614;28;20023;-71
2022/04/16 00:11:47;;;;;;;19.73;10.33;;;;;;;;;;5093820;28;20104;-71
2022/04/16 00:14:12;;;;;;;17.57;10.10;;;;;;;;;;5094094;28;20507;-72
2022/04/16 00:16:38;;;;;;;18.00;10.23;;;;;;;;;;5103687;28;20027;-70
2022/04/16 00:19:04;;;;;;;18.63;10.17;;;;;;;;;;5097940;28;20035;-71
2022/04/16 00:21:30;;;;;;;22.83;11.90;;;;;;;;;;5092266;28;20124;-70
2022/04/16 00:23:57;;;;;;;19.53;10.97;;;;;;;;;;5102900;28;20036;-71
2022/04/16 00:26:23;;;;;;;19.27;10.37;;;;;;;;;;5097969;28;20165;-70
2022/04/16 00:28:52;;;;;;;16.70;10.17;;;;;;;;;;5102880;28;20096;-71
2022/04/16 00:31:17;;;;;;;18.87;9.63;;;;;;;;;;5097662;28;20039;-71
2022/04/16 00:33:43;;;;;;;18.43;9.77;;;;;;;;;;5103435;28;20692;-70
2022/04/16 00:36:09;;;;;;;17.53;9.20;;;;;;;;;;5097850;28;20119;-72
2022/04/16 00:38:35;;;;;;;18.70;10.40;;;;;;;;;;5103168;28;20123;-70
2022/04/16 00:41:02;;;;;;;22.50;9.73;;;;;;;;;;5097089;28;20447;-72
2022/04/16 00:43:29;;;;;;;19.57;9.20;;;;;;;;;;5104063;28;20050;-72
2022/04/16 00:45:55;;;;;;;19.30;9.40;;;;;;;;;;5097291;28;20115;-70
2022/04/16 00:48:22;;;;;;;21.70;9.57;;;;;;;;;;5086278;28;20027;-71
2022/04/16 00:50:52;;;;;;;17.97;9.17;;;;;;;;;;5097060;28;20046;-72
2022/04/16 00:53:18;;;;;;;18.10;8.97;;;;;;;;;;5090125;28;20082;-70
2022/04/16 00:55:44;;;;;;;16.53;9.27;;;;;;;;;;5104507;28;20505;-71
2022/04/16 00:58:10;;;;;;;16.67;9.20;;;;;;;;;;5096900;28;20027;-71
2022/04/16 01:00:37;;;;;;;15.23;7.77;;;;;;;;;;5103151;28;20058;-71
2022/04/16 01:03:04;;;;;;;15.87;8.30;;;;;;;;;;5097015;28;20035;-72
2022/04/16 01:05:30;;;;;;;21.47;9.43;;;;;;;;;;5090146;28;20036;-71
2022/04/16 01:08:04;;;;;;;18.17;10.03;;;;;;;;;;5085915;28;20399;-71
2022/04/16 01:10:32;;;;;;;16.90;9.63;;;;;;;;;;5091279;28;20153;-71
2022/04/16 01:13:00;;;;;;;22.83;10.80;;;;;;;;;;5101617;28;20027;-70
2022/04/16 01:15:27;;;;;;;17.77;10.37;;;;;;;;;;5097757;28;20031;-71
2022/04/16 01:17:54;;;;;;;22.33;10.83;;;;;;;;;;5096073;28;20388;-71
2022/04/16 01:20:20;;;;;;;17.97;10.13;;;;;;;;;;5099719;28;20260;-71
2022/04/16 01:22:50;;;;;;;29.77;10.93;;;;;;;;;;5092030;28;20035;-71
2022/04/16 01:25:17;;;;;;;20.40;10.93;;;;;;;;;;5096121;28;20035;-71
2022/04/16 01:27:48;;;;;;;21.90;12.17;;;;;;;;;;5097815;28;20032;-72
2022/04/16 01:30:16;;;;;;;20.33;9.93;;;;;;;;;;5102670;28;20022;-71
2022/04/16 01:32:42;;;;;;;23.10;11.83;;;;;;;;;;5099669;28;20493;-70
2022/04/16 01:35:08;;;;;;;23.73;12.30;;;;;;;;;;5098754;28;20023;-71
2022/04/16 01:37:35;;;;;;;25.90;12.47;;;;;;;;;;5103033;28;20024;-70
2022/04/16 01:40:11;;;;;;;29.07;13.40;;;;;;;;;;5095421;28;20365;-70
2022/04/16 01:42:37;;;;;;;23.60;12.97;;;;;;;;;;5100421;27;20027;-70
2022/04/16 01:45:05;;;;;;;23.37;12.17;;;;;;;;;;5095893;28;20247;-70
2022/04/16 01:47:31;;;;;;;25.13;13.07;;;;;;;;;;5100554;28;20043;-70
2022/04/16 01:49:57;;;;;;;24.67;12.77;;;;;;;;;;5098767;28;20240;-71
2022/04/16 01:52:23;;;;;;;25.57;13.20;;;;;;;;;;5102357;28;20031;-71
2022/04/16 01:54:50;;;;;;;25.80;13.27;;;;;;;;;;5098272;28;20024;-71
2022/04/16 01:57:18;;;;;;;19.77;12.03;;;;;;;;;;5095955;28;20115;-71
2022/04/16 01:59:46;;;;;;;20.97;11.57;;;;;;;;;;5099878;28;20024;-72
2022/04/16 02:02:11;;;;;;;24.33;12.83;;;;;;;;;;5098933;28;20030;-71
2022/04/16 02:04:37;;;;;;;23.10;12.70;;;;;;;;;;5100327;28;20426;-71
2022/04/16 02:07:02;;;;;;;24.77;13.40;;;;;;;;;;5097239;28;20108;-72
2022/04/16 02:09:28;;;;;;;21.37;10.97;;;;;;;;;;5099744;28;20035;-71
2022/04/16 02:11:54;;;;;;;24.10;11.47;;;;;;;;;;5097740;28;20030;-70
2022/04/16 02:14:21;;;;;;;23.07;12.53;;;;;;;;;;5100916;28;20031;-70
2022/04/16 02:16:47;;;;;;;22.53;11.93;;;;;;;;;;5097526;28;20024;-70
2022/04/16 02:19:14;;;;;;;22.47;11.03;;;;;;;;;;5099402;28;20409;-71
2022/04/16 02:21:41;;;;;;;18.80;10.10;;;;;;;;;;5093326;28;20019;-71
2022/04/16 02:24:06;;;;;;;22.33;11.77;;;;;;;;;;5096988;28;20111;-72
2022/04/16 02:26:32;;;;;;;21.60;10.73;;;;;;;;;;5099439;28;20214;-71
2022/04/16 02:28:59;;;;;;;23.10;10.90;;;;;;;;;;5096862;28;20024;-71
2022/04/16 02:31:28;;;;;;;23.87;12.20;;;;;;;;;;5099237;28;20042;-71
2022/04/16 02:33:55;;;;;;;23.43;10.80;;;;;;;;;;5096756;28;20088;-71
2022/04/16 02:36:25;;;;;;;19.97;10.60;;;;;;;;;;5099515;28;20054;-72
2022/04/16 02:38:52;;;;;;;21.23;11.30;;;;;;;;;;5093870;28;20016;-71
2022/04/16 02:41:19;;;;;;;27.27;14.53;;;;;;;;;;5095841;28;20043;-72
2022/04/16 02:43:44;;;;;;;20.87;11.87;;;;;;;;;;5100128;28;20039;-71
2022/04/16 02:48:54;;;;;;;21.77;11.37;;;;;;;;;;5090773;28;20085;-72
2022/04/16 02:51:20;;;;;;;21.73;10.53;;;;;;;;;;5101321;28;20066;-71
2022/04/16 02:53:45;;;;;;;22.30;10.37;;;;;;;;;;5100117;28;20405;-71
2022/04/16 02:56:12;;;;;;;17.57;9.63;;;;;;;;;;5094916;28;20111;-71
2022/04/16 02:58:42;;;;;;;22.00;10.67;;;;;;;;;;5101743;28;20031;-71
2022/04/16 03:01:12;;;;;;;18.33;9.73;;;;;;;;;;5095430;28;20050;-72
2022/04/16 03:03:39;;;;;;;16.63;8.70;;;;;;;;;;5099419;28;20027;-71
2022/04/16 03:06:05;;;;;;;15.80;8.87;;;;;;;;;;5095732;28;20035;-72
2022/04/16 03:08:31;;;;;;;18.33;8.90;;;;;;;;;;5099159;28;20116;-71
2022/04/16 03:11:00;;;;;;;18.50;8.60;;;;;;;;;;5096585;28;20028;-72
2022/04/16 03:13:27;;;;;;;14.77;8.90;;;;;;;;;;5095811;28;20484;-71
2022/04/16 03:18:38;;;;;;;19.10;8.23;;;;;;;;;;5096071;28;20076;-71
2022/04/16 03:21:04;;;;;;;17.00;8.87;;;;;;;;;;5091285;28;20035;-72
2022/04/16 03:23:30;;;;;;;14.00;8.43;;;;;;;;;;5100073;28;20031;-71
2022/04/16 03:26:00;;;;;;;16.93;9.17;;;;;;;;;;5096543;28;20028;-71
2022/04/16 03:28:27;;;;;;;16.00;8.20;;;;;;;;;;5098731;28;20032;-71
2022/04/16 03:30:54;;;;;;;15.30;8.47;;;;;;;;;;5095944;28;20028;-71
2022/04/16 03:33:23;;;;;;;15.00;7.80;;;;;;;;;;5099091;28;20046;-71
2022/04/16 03:35:49;;;;;;;14.73;7.97;;;;;;;;;;5096496;28;20532;-71
2022/04/16 03:38:16;;;;;;;13.43;7.93;;;;;;;;;;5100607;28;20019;-71
2022/04/16 03:40:42;;;;;;;14.50;7.63;;;;;;;;;;5095358;28;20160;-71
2022/04/16 03:43:09;;;;;;;14.13;8.23;;;;;;;;;;5100410;28;20023;-71
2022/04/16 03:45:39;;;;;;;13.97;8.23;;;;;;;;;;5095654;28;20032;-71
2022/04/16 03:48:08;;;;;;;17.30;8.73;;;;;;;;;;5095389;28;20115;-70
2022/04/16 03:50:36;;;;;;;17.73;9.13;;;;;;;;;;5085640;28;20035;-71
2022/04/16 03:53:03;;;;;;;15.70;9.00;;;;;;;;;;5104903;28;20031;-72
2022/04/16 04:01:06;;;;;;;12.57;8.13;;;;;;;;;;5100111;28;20100;-72
2022/04/16 04:03:33;;;;;;;15.87;8.80;;;;;;;;;;5103771;28;20121;-70
2022/04/16 04:06:01;;;;;;;17.13;9.47;;;;;;;;;;5104548;28;20491;-71
2022/04/16 04:08:27;;;;;;;14.50;9.30;;;;;;;;;;5104015;28;20514;-71
2022/04/16 04:10:53;;;;;;;16.77;9.23;;;;;;;;;;5100199;28;20442;-71
2022/04/16 04:13:23;;;;;;;15.00;9.57;;;;;;;;;;5104930;28;20033;-71
2022/04/16 04:15:49;;;;;;;16.20;9.77;;;;;;;;;;5099405;28;20070;-71
2022/04/16 04:18:16;;;;;;;17.47;9.47;;;;;;;;;;5103320;28;20031;-71
2022/04/16 04:20:42;;;;;;;17.20;9.00;;;;;;;;;;5097869;28;20024;-71
2022/04/16 04:23:09;;;;;;;16.23;8.80;;;;;;;;;;5103009;28;20076;-70
2022/04/16 04:25:35;;;;;;;14.40;7.90;;;;;;;;;;5097244;28;20055;-70
2022/04/16 04:28:01;;;;;;;10.67;7.30;;;;;;;;;;5097456;28;20124;-72
2022/04/16 04:30:29;;;;;;;11.27;6.63;;;;;;;;;;5103500;28;20039;-71
2022/04/16 04:32:58;;;;;;;14.57;9.13;;;;;;;;;;5097312;28;20028;-71
2022/04/16 04:35:24;;;;;;;10.57;6.23;;;;;;;;;;5092184;28;20016;-70
2022/04/16 04:37:51;;;;;;;8.67;5.23;;;;;;;;;;5103757;28;20027;-71
2022/04/16 04:40:17;;;;;;;8.40;4.77;;;;;;;;;;5091591;28;20016;-72
2022/04/16 04:42:43;;;;;;;6.90;4.77;;;;;;;;;;5097011;28;20097;-71
2022/04/16 04:45:11;;;;;;;9.60;5.37;;;;;;;;;;5103593;28;20015;-70
2022/04/16 04:47:37;;;;;;;7.43;5.87;;;;;;;;;;5090951;28;20024;-71
2022/04/16 04:50:05;;;;;;;9.90;5.03;;;;;;;;;;5102955;28;20024;-70
2022/04/16 04:52:31;;;;;;;7.37;4.57;;;;;;;;;;5096920;28;20117;-71
2022/04/16 04:55:01;;;;;;;9.60;6.10;;;;;;;;;;5098002;28;20032;-72
2022/04/16 04:57:28;;;;;;;9.03;5.90;;;;;;;;;;5102763;28;20527;-71
2022/04/16 04:59:54;;;;;;;7.93;6.13;;;;;;;;;;5096412;28;20032;-72
2022/04/16 05:02:20;;;;;;;11.63;6.47;;;;;;;;;;5096868;28;20039;-71
2022/04/16 05:04:46;;;;;;;7.23;5.30;;;;;;;;;;5102766;28;20027;-71
2022/04/16 05:07:13;;;;;;;10.17;6.57;;;;;;;;;;5096014;28;20048;-70
2022/04/16 05:09:39;;;;;;;10.43;6.97;;;;;;;;;;5096702;28;20031;-71
2022/04/16 05:12:05;;;;;;;8.63;6.50;;;;;;;;;;5096874;28;20020;-70
2022/04/16 05:14:32;;;;;;;10.67;5.30;;;;;;;;;;5102381;28;20041;-71
2022/04/16 05:16:57;;;;;;;6.47;4.30;;;;;;;;;;5098799;28;20028;-73
2022/04/16 05:19:23;;;;;;;5.27;4.70;;;;;;;;;;5085408;28;20031;-71
2022/04/16 05:21:48;;;;;;;7.60;5.57;;;;;;;;;;5096318;28;20080;-71
2022/04/16 05:24:14;;;;;;;11.97;6.43;;;;;;;;;;5096729;28;20028;-71
2022/04/16 05:26:39;;;;;;;8.43;5.23;;;;;;;;;;5102596;28;20035;-71
2022/04/16 05:29:06;;;;;;;9.47;5.90;;;;;;;;;;5095588;28;20023;-71
2022/04/16 05:31:32;;;;;;;6.43;4.97;;;;;;;;;;5089551;28;20039;-71
2022/04/16 05:36:42;;;;;;;7.73;5.37;;;;;;;;;;5101542;28;20126;-70
2022/04/16 05:39:08;;;;;;;9.43;6.07;;;;;;;;;;5097979;28;20119;-70
2022/04/16 05:41:34;;;;;;;7.57;4.73;;;;;;;;;;5100489;28;20029;-70
2022/04/16 05:44:00;;;;;;;7.80;5.90;;;;;;;;;;5097988;28;20115;-71
2022/04/16 05:46:25;;;;;;;9.83;6.20;;;;;;;;;;5097271;28;20031;-70
2022/04/16 05:48:51;;;;;;;12.03;7.20;;;;;;;;;;5100427;28;20028;-70
2022/04/16 05:51:18;;;;;;;8.17;5.60;;;;;;;;;;5097331;28;20052;-71
2022/04/16 05:53:45;;;;;;;7.83;5.40;;;;;;;;;;5100701;28;20031;-70
2022/04/16 05:56:11;;;;;;;7.33;5.30;;;;;;;;;;5095427;28;20024;-70
2022/04/16 05:58:37;;;;;;;8.27;4.93;;;;;;;;;;5098349;28;20035;-72
2022/04/16 06:01:03;;;;;;;12.73;6.47;;;;;;;;;;5099882;28;20032;-70
2022/04/16 06:03:29;;;;;;;9.67;6.37;;;;;;;;;;5099046;28;20028;-71
2022/04/16 06:05:55;;;;;;;8.23;6.47;;;;;;;;;;5099895;28;20031;-71
2022/04/16 06:08:20;;;;;;;12.10;6.77;;;;;;;;;;5101942;28;20044;-71
2022/04/16 06:10:46;;;;;;;13.27;7.37;;;;;;;;;;5097289;28;20024;-72
2022/04/16 06:13:12;;;;;;;14.67;9.40;;;;;;;;;;5099639;28;20028;-71
2022/04/16 06:15:41;;;;;;;15.00;8.00;;;;;;;;;;5097917;28;20031;-71
2022/04/16 06:18:08;;;;;;;17.03;9.03;;;;;;;;;;5101270;28;20029;-70
2022/04/16 06:20:35;;;;;;;12.43;9.13;;;;;;;;;;5095426;28;20507;-71
2022/04/16 06:23:01;;;;;;;13.67;8.90;;;;;;;;;;5099449;28;20475;-72
2022/04/16 06:25:27;;;;;;;11.87;7.30;;;;;;;;;;5096839;28;20348;-71
2022/04/16 06:27:52;;;;;;;10.60;6.90;;;;;;;;;;5101052;28;20075;-71
2022/04/16 06:30:18;;;;;;;12.63;7.67;;;;;;;;;;5097331;28;20024;-72
2022/04/16 06:32:43;;;;;;;11.17;6.60;;;;;;;;;;5100246;28;20114;-71
2022/04/16 06:35:12;;;;;;;13.13;7.57;;;;;;;;;;5095816;28;20076;-72
2022/04/16 06:37:38;;;;;;;13.97;6.87;;;;;;;;;;5099840;28;20077;-72
2022/04/16 06:40:06;;;;;;;9.30;5.43;;;;;;;;;;5095437;28;20123;-72
2022/04/16 06:42:32;;;;;;;10.67;5.23;;;;;;;;;;5101130;28;20447;-72
2022/04/16 06:44:57;;;;;;;11.93;6.30;;;;;;;;;;5099734;28;20062;-71
2022/04/16 06:47:24;;;;;;;7.10;5.47;;;;;;;;;;5097251;28;20028;-71
2022/04/16 06:49:50;;;;;;;7.30;4.03;;;;;;;;;;5100097;28;20179;-71
2022/04/16 06:52:19;;;;;;;5.73;4.10;;;;;;;;;;5094527;28;20057;-70
2022/04/16 06:54:46;;;;;;;3.50;3.20;;;;;;;;;;5079627;28;20032;-70
2022/04/16 06:57:12;;;;;;;6.27;3.00;;;;;;;;;;5101870;28;20106;-72
2022/04/16 06:59:37;;;;;;;3.50;2.63;;;;;;;;;;5098090;28;20032;-70
2022/04/16 07:02:07;;;;;;;6.20;3.20;;;;;;;;;;5100704;28;20027;-70
2022/04/16 07:04:33;;;;;;;6.00;2.83;;;;;;;;;;5096232;28;20058;-70
2022/04/16 07:06:59;;;;;;;6.20;3.40;;;;;;;;;;5100674;28;20048;-72
2022/04/16 07:09:25;;;;;;;5.23;3.07;;;;;;;;;;5095611;28;20054;-70
2022/04/16 07:11:50;;;;;;;7.03;3.13;;;;;;;;;;5097389;28;20483;-71
2022/04/16 07:14:16;;;;;;;10.90;3.00;;;;;;;;;;5099153;28;20077;-71
2022/04/16 07:16:42;;;;;;;2.93;2.43;;;;;;;;;;5095934;28;20036;-71
2022/04/16 07:19:09;;;;;;;5.43;2.43;;;;;;;;;;5099115;28;20122;-71
2022/04/16 07:21:35;;;;;;;4.80;2.83;;;;;;;;;;5096345;28;20120;-72
2022/04/16 07:24:00;;;;;;;3.17;2.47;;;;;;;;;;5101290;28;20035;-71
2022/04/16 07:26:26;;;;;;;75.07;21.37;;;;;;;;;;5100156;28;20020;-72
2022/04/16 07:28:51;;;;;;;7.47;3.57;;;;;;;;;;5103570;28;20043;-72
2022/04/16 07:31:17;;;;;;;4.20;2.20;;;;;;;;;;5101040;28;20277;-72
2022/04/16 07:33:42;;;;;;;3.43;2.77;;;;;;;;;;5104302;28;20028;-72
2022/04/16 07:36:08;;;;;;;4.17;2.53;;;;;;;;;;5106687;28;20035;-73
2022/04/16 07:38:33;;;;;;;6.40;3.63;;;;;;;;;;5100209;28;20028;-72
2022/04/16 07:40:59;;;;;;;3.43;2.57;;;;;;;;;;5104426;28;20031;-72
2022/04/16 07:43:25;;;;;;;3.20;2.83;;;;;;;;;;5098729;28;20030;-73
2022/04/16 07:45:50;;;;;;;3.93;2.43;;;;;;;;;;5106119;28;20506;-73
2022/04/16 07:48:16;;;;;;;3.40;2.27;;;;;;;;;;5097906;28;20093;-72
2022/04/16 07:50:41;;;;;;;3.20;2.70;;;;;;;;;;5105133;28;20032;-72
2022/04/16 07:53:09;;;;;;;3.40;2.70;;;;;;;;;;5097837;28;20020;-73
2022/04/16 07:55:35;;;;;;;3.60;2.00;;;;;;;;;;5098113;28;20440;-73
2022/04/16 07:58:00;;;;;;;4.80;2.53;;;;;;;;;;5105697;28;20015;-73
2022/04/16 08:00:26;;;;;;;3.50;1.90;;;;;;;;;;5097806;28;20092;-73
2022/04/16 08:02:52;;;;;;;2.97;2.30;;;;;;;;;;5104384;28;20027;-72
2022/04/16 08:05:19;;;;;;;4.40;2.20;;;;;;;;;;5098178;28;20370;-72
2022/04/16 08:07:45;;;;;;;3.27;2.57;;;;;;;;;;5104033;28;20047;-71
2022/04/16 08:10:12;;;;;;;3.97;1.90;;;;;;;;;;5080706;28;20043;-72
2022/04/16 08:12:38;;;;;;;3.70;1.67;;;;;;;;;;5105489;28;20023;-72
2022/04/16 08:15:04;;;;;;;4.43;2.20;;;;;;;;;;5097726;28;20421;-73
2022/04/16 08:17:30;;;;;;;3.37;2.33;;;;;;;;;;5103843;28;20019;-73
2022/04/16 08:19:56;;;;;;;5.70;2.70;;;;;;;;;;5097958;28;20407;-72
2022/04/16 08:22:22;;;;;;;2.43;2.17;;;;;;;;;;5098270;28;20024;-73
2022/04/16 08:27:34;;;;;;;2.53;2.33;;;;;;;;;;5095852;28;20161;-72
2022/04/16 08:30:00;;;;;;;4.60;2.23;;;;;;;;;;5101862;28;20412;-72
2022/04/16 08:32:25;;;;;;;8.53;2.47;;;;;;;;;;5098352;28;20392;-73
2022/04/16 08:34:51;;;;;;;4.10;2.13;;;;;;;;;;5098500;28;20032;-72
2022/04/16 08:37:17;;;;;;;3.10;1.93;;;;;;;;;;5068210;28;20031;-72
2022/04/16 08:39:44;;;;;;;2.77;2.23;;;;;;;;;;5098423;28;20042;-72
2022/04/16 08:42:11;;;;;;;2.47;1.67;;;;;;;;;;5102344;28;20030;-73
2022/04/16 08:44:40;;;;;;;2.53;1.73;;;;;;;;;;5098641;28;20089;-72
2022/04/16 08:47:06;;;;;;;2.60;2.40;;;;;;;;;;5086855;28;20068;-71
2022/04/16 08:49:35;;;;;;;2.40;2.20;;;;;;;;;;5101600;28;20089;-72
2022/04/16 08:52:03;;;;;;;2.07;1.83;;;;;;;;;;5098969;28;20036;-72
2022/04/16 08:54:29;;;;;;;4.53;2.90;;;;;;;;;;5084224;28;20031;-73
2022/04/16 08:56:55;;;;;;;3.53;2.33;;;;;;;;;;5098792;28;20028;-73
2022/04/16 08:59:20;;;;;;;4.37;2.80;;;;;;;;;;5102559;28;20027;-71
2022/04/16 09:01:46;;;;;;;5.40;2.87;;;;;;;;;;5096769;28;20372;-73
2022/04/16 09:04:22;;;;;;;3.83;2.10;;;;;;;;;;5097973;28;20036;-73
2022/04/16 09:06:59;;;;;;;3.33;2.23;;;;;;;;;;5100002;28;20108;-73
2022/04/16 09:09:25;;;;;;;3.53;2.20;;;;;;;;;;5100609;28;20049;-72
2022/04/16 09:11:52;;;;;;;2.60;2.23;;;;;;;;;;5098970;28;20031;-72
2022/04/16 09:14:18;;;;;;;3.03;1.90;;;;;;;;;;5096435;28;20023;-73
2022/04/16 09:16:44;;;;;;;5.60;2.27;;;;;;;;;;5102527;28;20024;-74
2022/04/16 09:19:17;;;;;;;2.47;1.80;;;;;;;;;;5096329;28;20046;-72
2022/04/16 09:21:43;;;;;;;9.30;4.10;;;;;;;;;;5103333;28;20028;-71
2022/04/16 09:24:10;;;;;;;2.63;1.63;;;;;;;;;;5099177;27;20077;-73
2022/04/16 09:26:38;;;;;;;2.90;2.40;;;;;;;;;;5103280;28;20551;-72
2022/04/16 09:29:12;;;;;;;2.77;2.10;;;;;;;;;;5095785;28;20036;-72
2022/04/16 09:31:39;;;;;;;5.33;2.00;;;;;;;;;;5103083;28;20080;-72
2022/04/16 09:34:19;;;;;;;2.97;2.20;;;;;;;;;;5096246;28;20035;-72
2022/04/16 09:36:47;;;;;;;5.27;2.33;;;;;;;;;;5094540;28;20107;-73
2022/04/16 09:39:13;;;;;;;3.73;1.90;;;;;;;;;;5102209;27;20019;-74
2022/04/16 09:41:42;;;;;;;2.10;1.90;;;;;;;;;;5097728;28;20032;-73
2022/04/16 09:44:21;;;;;;;2.33;1.60;;;;;;;;;;5100612;28;20040;-73
2022/04/16 09:46:49;;;;;;;4.33;1.57;;;;;;;;;;5100569;28;20023;-73
2022/04/16 09:49:16;;;;;;;5.00;1.63;;;;;;;;;;5102117;28;20024;-73
2022/04/16 09:51:44;;;;;;;7.97;1.97;;;;;;;;;;5099282;28;20066;-73
2022/04/16 09:54:11;;;;;;;2.10;1.77;;;;;;;;;;5099685;28;20019;-73
2022/04/16 09:56:38;;;;;;;8.90;2.63;;;;;;;;;;5099688;28;20127;-72
2022/04/16 09:59:06;;;;;;;2.93;2.20;;;;;;;;;;5100008;28;20514;-73
2022/04/16 10:01:33;;;;;;;3.80;1.80;;;;;;;;;;5099102;28;20055;-72
2022/04/16 10:04:03;;;;;;;4.23;2.87;;;;;;;;;;5102117;28;20027;-72
2022/04/16 10:06:30;;;;;;;17.87;8.90;;;;;;;;;;5098890;28;20361;-72
2022/04/16 10:08:57;;;;;;;3.57;2.77;;;;;;;;;;5101133;28;20506;-73
2022/04/16 10:14:22;;;;;;;4.53;2.93;;;;;;;;;;5093568;28;20524;-73
2022/04/16 10:17:07;;;;;;;4.07;2.20;;;;;;;;;;5100976;28;20042;-72
2022/04/16 10:19:47;;;;;;;4.80;2.40;;;;;;;;;;5101479;28;20084;-72
2022/04/16 10:22:26;;;;;;;4.67;1.53;;;;;;;;;;5100112;28;20027;-72
2022/04/16 10:24:59;;;;;;;3.67;2.13;;;;;;;;;;5094730;28;20120;-72
2022/04/16 10:27:27;;;;;;;3.30;1.70;;;;;;;;;;5095769;28;20036;-72
2022/04/16 10:29:58;;;;;;;6.80;2.27;;;;;;;;;;5099274;28;20036;-72
2022/04/16 10:32:28;;;;;;;3.17;2.37;;;;;;;;;;5095105;28;20033;-73
2022/04/16 10:35:05;;;;;;;2.77;2.43;;;;;;;;;;5095418;28;20075;-72
2022/04/16 10:37:38;;;;;;;3.57;2.27;;;;;;;;;;5083437;28;20027;-73
2022/04/16 10:40:25;;;;;;;3.67;2.43;;;;;;;;;;5101704;28;20062;-72
2022/04/16 10:42:57;;;;;;;4.03;2.37;;;;;;;;;;5092967;28;20036;-72
2022/04/16 10:45:24;;;;;;;;;;;;;;;;;;5098799;28;20050;-72
2022/04/16 10:47:51;;;;;;;4.30;2.00;;;;;;;;;;5095126;28;19916;-73
2022/04/16 10:50:18;;;;;;;3.47;2.53;;;;;;;;;;5096202;28;20092;-72
2022/04/16 10:53:00;;;;;;;3.73;1.90;;;;;;;;;;5094599;28;20028;-73
2022/04/16 10:55:36;;;;;;;3.35;1.92;;;;;;;;;;5100486;28;20036;-73
2022/04/16 10:58:04;;;;;;;2.90;1.93;;;;;;;;;;5084704;28;20078;-72
2022/04/16 11:00:46;;;;;;;3.60;2.30;;;;;;;;;;5100888;28;20518;-72
2022/04/16 11:03:17;;;;;;;4.57;1.90;;;;;;;;;;5098897;28;20107;-73
2022/04/16 11:05:43;;;;;;;3.35;2.28;;;;;;;;;;5098225;28;20027;-74
2022/04/16 11:08:14;;;;;;;3.07;1.90;;;;;;;;;;5101027;28;20039;-72
2022/04/16 11:10:41;;;;;;;4.17;2.07;;;;;;;;;;5098536;28;20044;-72
2022/04/16 11:13:11;;;;;;;3.70;2.13;;;;;;;;;;5102571;28;20024;-72
2022/04/16 11:15:36;;;;;;;2.10;1.90;;;;;;;;;;5103014;28;20048;-71
2022/04/16 11:18:03;;;;;;;2.90;1.90;;;;;;;;;;5101516;28;20027;-72
2022/04/16 11:20:29;;;;;;;2.17;1.70;;;;;;;;;;5094177;28;20032;-72
2022/04/16 11:22:56;;;;;;;3.03;2.20;;;;;;;;;;5072333;28;20668;-73
2022/04/16 11:25:23;;;;;;;2.43;1.97;;;;;;;;;;5096052;28;20036;-73
2022/04/16 11:36:11;;;;;;;2.23;1.60;;;;;;;;;;5103158;28;20089;-73
2022/04/16 11:38:39;;;;;;;5.20;1.60;;;;;;;;;;5100719;28;20061;-72
2022/04/16 11:41:10;;;;;;;2.03;1.67;;;;;;;;;;5089366;28;20057;-72
2022/04/16 11:43:38;;;;;;;5.47;1.60;;;;;;;;;;5088835;28;20032;-73
2022/04/16 11:46:13;;;;;;;1.80;1.63;;;;;;;;;;5100216;28;20571;-73
2022/04/16 11:48:49;;;;;;;3.27;2.20;;;;;;;;;;5094155;28;20046;-73
2022/04/16 11:51:16;;;;;;;2.80;1.73;;;;;;;;;;5098900;28;20027;-72
2022/04/16 11:53:45;;;;;;;3.33;2.00;;;;;;;;;;5097729;28;20028;-72
2022/04/16 11:56:10;;;;;;;2.90;2.33;;;;;;;;;;5097909;28;20084;-73
2022/04/16 11:58:37;;;;;;;2.07;1.73;;;;;;;;;;5098865;28;20024;-72
2022/04/16 12:01:04;;;;;;;1.40;1.30;;;;;;;;;;5097855;28;20102;-73
2022/04/16 12:03:39;;;;;;;2.20;1.83;;;;;;;;;;5101198;28;20414;-72
2022/04/16 12:06:10;;;;;;;7.87;2.10;;;;;;;;;;5099427;28;20020;-71
2022/04/16 12:08:36;;;;;;;2.25;1.90;;;;;;;;;;5104221;28;20064;-72
2022/04/16 12:11:03;;;;;;;3.87;2.07;;;;;;;;;;5104365;28;20067;-72
2022/04/16 12:13:37;;;;;;;2.38;1.55;;;;;;;;;;5105996;28;20497;-73
2022/04/16 12:16:07;;;;;;;1.50;1.35;;;;;;;;;;5100467;28;20024;-74
2022/04/16 12:18:39;;;;;;;4.45;2.00;;;;;;;;;;5104548;28;20784;-73
2022/04/16 12:21:12;;;;;;;6.40;2.00;;;;;;;;;;5085319;28;20442;-73
2022/04/16 12:23:38;;;;;;;4.72;1.90;;;;;;;;;;5100725;28;20115;-72
2022/04/16 12:26:07;;;;;;;1.60;1.35;;;;;;;;;;5103160;28;20404;-73
2022/04/16 12:28:35;;;;;;;1.60;1.40;;;;;;;;;;5098656;28;20032;-73
2022/04/16 12:31:02;;;;;;;3.67;1.60;;;;;;;;;;5105483;28;20084;-71
2022/04/16 12:33:27;;;;;;;2.80;1.95;;;;;;;;;;5102311;28;20032;-72
2022/04/16 12:35:56;;;;;;;2.33;1.73;;;;;;;;;;5099025;28;20502;-73
2022/04/16 12:38:24;;;;;;;1.75;1.48;;;;;;;;;;5103726;28;20032;-72
2022/04/16 12:40:51;;;;;;;6.05;1.70;;;;;;;;;;5103214;28;20420;-73
2022/04/16 12:43:17;;;;;;;9.27;2.45;;;;;;;;;;5081291;28;20036;-73
2022/04/16 12:45:43;;;;;;;2.40;1.77;;;;;;;;;;5101880;28;20053;-73
2022/04/16 12:48:09;;;;;;;2.15;1.63;;;;;;;;;;5098626;28;20032;-73
2022/04/16 12:50:35;;;;;;;2.70;1.83;;;;;;;;;;5104928;28;20040;-72
2022/04/16 12:53:01;;;;;;;4.10;1.90;;;;;;;;;;5085750;28;20395;-72
2022/04/16 12:55:30;;;;;;;1.40;1.30;;;;;;;;;;5098002;28;20376;-72
2022/04/16 12:57:56;;;;;;;1.40;1.27;;;;;;;;;;5103350;28;20016;-71
2022/04/16 13:00:22;;;;;;;2.00;1.63;;;;;;;;;;5101758;28;20042;-73
2022/04/16 13:02:48;;;;;;;3.33;1.40;;;;;;;;;;5098561;28;20032;-72
2022/04/16 13:05:16;;;;;;;5.22;1.55;;;;;;;;;;5081103;28;20024;-72
2022/04/16 13:07:44;;;;;;;2.17;1.30;;;;;;;;;;5103164;28;20039;-72
2022/04/16 13:10:12;;;;;;;2.83;1.40;;;;;;;;;;5104674;28;20028;-73
2022/04/16 13:12:38;;;;;;;2.35;1.83;;;;;;;;;;5084238;28;20482;-73
2022/04/16 13:15:05;;;;;;;2.47;1.73;;;;;;;;;;5096421;28;20089;-73
2022/04/16 13:17:31;;;;;;;2.35;1.33;;;;;;;;;;5096467;28;20141;-72
2022/04/16 13:19:57;;;;;;;2.28;1.30;;;;;;;;;;5099629;28;20107;-72
2022/04/16 13:22:22;;;;;;;2.40;1.70;;;;;;;;;;5100368;28;20089;-73
2022/04/16 13:24:48;;;;;;;2.03;1.30;;;;;;;;;;5101633;28;20368;-72
2022/04/16 13:27:13;;;;;;;1.60;1.50;;;;;;;;;;5096296;28;20031;-72
2022/04/16 13:29:39;;;;;;;4.00;1.20;;;;;;;;;;5097625;28;20498;-73
2022/04/16 13:32:08;;;;;;;2.45;1.35;;;;;;;;;;5102164;28;20108;-74
2022/04/16 13:34:34;;;;;;;2.03;1.30;;;;;;;;;;5103483;28;20035;-73
2022/04/16 13:37:00;;;;;;;2.13;1.52;;;;;;;;;;5097785;28;20078;-73
2022/04/16 13:42:10;;;;;;;1.83;1.40;;;;;;;;;;5101735;28;20084;-72
2022/04/16 13:44:36;;;;;;;3.67;1.17;;;;;;;;;;5098380;28;20032;-72
2022/04/16 13:47:02;;;;;;;2.03;1.60;;;;;;;;;;5100121;28;20354;-72
2022/04/16 13:49:28;;;;;;;3.13;1.30;;;;;;;;;;5098571;28;20027;-73
2022/04/16 13:51:54;;;;;;;3.03;1.40;;;;;;;;;;5101693;28;20428;-71
2022/04/16 13:54:21;;;;;;;2.17;1.77;;;;;;;;;;5096873;28;20032;-72
2022/04/16 13:56:47;;;;;;;1.27;0.88;;;;;;;;;;5099736;28;20208;-73
2022/04/16 13:59:15;;;;;;;2.05;1.30;;;;;;;;;;5102142;28;20015;-72
2022/04/16 14:01:41;;;;;;;2.75;1.92;;;;;;;;;;5103653;28;20504;-74
2022/04/16 14:04:07;;;;;;;4.13;1.30;;;;;;;;;;5098740;28;20030;-73
2022/04/16 14:06:32;;;;;;;4.38;1.70;;;;;;;;;;5096483;28;20035;-72
2022/04/16 14:08:58;;;;;;;1.10;1.10;;;;;;;;;;5098951;28;20096;-73
2022/04/16 14:11:25;;;;;;;3.72;1.52;;;;;;;;;;5099960;28;20323;-72
2022/04/16 14:13:51;;;;;;;3.05;1.40;;;;;;;;;;5102802;28;20058;-71
2022/04/16 14:16:17;;;;;;;1.75;1.20;;;;;;;;;;5095284;28;20024;-72
2022/04/16 14:18:43;;;;;;;3.40;1.20;;;;;;;;;;5099170;28;20167;-73
2022/04/16 14:21:10;;;;;;;1.58;1.08;;;;;;;;;;5094072;28;20437;-73
2022/04/16 14:23:37;;;;;;;3.83;1.63;;;;;;;;;;5098248;28;20024;-72
2022/04/16 14:26:04;;;;;;;2.10;1.20;;;;;;;;;;5098224;28;20479;-72
2022/04/16 14:28:29;;;;;;;2.88;1.70;;;;;;;;;;5098414;28;20292;-72
2022/04/16 14:30:57;;;;;;;1.88;1.27;;;;;;;;;;5098650;28;20024;-72
2022/04/16 14:33:22;;;;;;;2.63;1.10;;;;;;;;;;5099447;28;20083;-74
2022/04/16 14:35:48;;;;;;;2.03;1.08;;;;;;;;;;5099626;28;20078;-72
2022/04/16 14:38:13;;;;;;;4.78;1.23;;;;;;;;;;5081415;28;20027;-73
2022/04/16 14:40:40;;;;;;;4.93;1.50;;;;;;;;;;5098026;28;20128;-73
2022/04/16 14:43:06;;;;;;;2.90;1.40;;;;;;;;;;5094923;28;20024;-73
2022/04/16 14:45:36;;;;;;;3.88;1.30;;;;;;;;;;5097983;28;20028;-73
2022/04/16 14:48:03;;;;;;;1.23;1.02;;;;;;;;;;5081142;28;20093;-72
2022/04/16 14:50:29;;;;;;;6.57;2.40;;;;;;;;;;5098564;28;20046;-73
2022/04/16 14:52:55;;;;;;;1.60;0.90;;;;;;;;;;5097377;28;20392;-72
2022/04/16 14:55:21;;;;;;;1.35;0.93;;;;;;;;;;5098244;28;20023;-73
2022/04/16 14:57:47;;;;;;;3.08;1.13;;;;;;;;;;5097889;28;20032;-72
2022/04/16 15:00:13;;;;;;;2.28;1.85;;;;;;;;;;5098330;28;20020;-72
2022/04/16 15:02:39;;;;;;;1.50;1.02;;;;;;;;;;5097341;28;20035;-73
2022/04/16 15:05:05;;;;;;;1.75;1.33;;;;;;;;;;5098234;28;20084;-73
2022/04/16 15:07:31;;;;;;;2.70;1.20;;;;;;;;;;5097279;28;20470;-73